sensor_id;sensor_type;location;lat;lon;timestamp;P1;durP1;ratioP1;P2;durP2;ratioP2
74259;SDS011;62630;55.874;37.516;2022-12-10T00:01:17;22.92;;;10.80;;
74259;SDS011;62630;55.874;37.516;2022-12-10T00:03:44;25.65;;;11.40;;
74259;SDS011;62630;55.874;37.516;2022-12-10T00:06:12;22.33;;;10.25;;
74259;SDS011;62630;55.874;37.516;2022-12-10T00:08:39;25.67;;;11.07;;
74259;SDS011;62630;55.874;37.516;2022-12-10T00:11:06;28.55;;;11.10;;
74259;SDS011;62630;55.874;37.516;2022-12-10T00:13:37;27.20;;;10.52;;
74259;SDS011;62630;55.874;37.516;2022-12-10T00:16:04;25.67;;;11.05;;
74259;SDS011;62630;55.874;37.516;2022-12-10T00:18:35;24.23;;;10.38;;
74259;SDS011;62630;55.874;37.516;2022-12-10T00:21:02;27.27;;;11.02;;
74259;SDS011;62630;55.874;37.516;2022-12-10T00:23:29;23.00;;;10.32;;
74259;SDS011;62630;55.874;37.516;2022-12-10T00:26:18;24.98;;;9.45;;
74259;SDS011;62630;55.874;37.516;2022-12-10T00:28:44;26.67;;;10.70;;
74259;SDS011;62630;55.874;37.516;2022-12-10T00:31:31;26.20;;;10.73;;
74259;SDS011;62630;55.874;37.516;2022-12-10T00:33:59;26.40;;;11.52;;
74259;SDS011;62630;55.874;37.516;2022-12-10T00:36:29;27.50;;;11.75;;
74259;SDS011;62630;55.874;37.516;2022-12-10T00:38:56;28.67;;;10.98;;
74259;SDS011;62630;55.874;37.516;2022-12-10T00:41:23;33.35;;;10.60;;
74259;SDS011;62630;55.874;37.516;2022-12-10T00:43:48;26.73;;;11.07;;
74259;SDS011;62630;55.874;37.516;2022-12-10T00:46:14;28.40;;;10.82;;
74259;SDS011;62630;55.874;37.516;2022-12-10T00:48:41;26.08;;;10.32;;
74259;SDS011;62630;55.874;37.516;2022-12-10T00:51:08;22.98;;;10.30;;
74259;SDS011;62630;55.874;37.516;2022-12-10T00:53:36;24.65;;;11.98;;
74259;SDS011;62630;55.874;37.516;2022-12-10T00:56:03;26.10;;;10.70;;
74259;SDS011;62630;55.874;37.516;2022-12-10T00:58:30;25.63;;;10.55;;
74259;SDS011;62630;55.874;37.516;2022-12-10T01:01:07;24.85;;;10.77;;
74259;SDS011;62630;55.874;37.516;2022-12-10T01:03:34;24.40;;;10.02;;
74259;SDS011;62630;55.874;37.516;2022-12-10T01:08:57;22.40;;;9.43;;
74259;SDS011;62630;55.874;37.516;2022-12-10T01:11:25;21.85;;;9.40;;
74259;SDS011;62630;55.874;37.516;2022-12-10T01:13:53;22.25;;;9.40;;
74259;SDS011;62630;55.874;37.516;2022-12-10T01:16:20;22.73;;;9.15;;
74259;SDS011;62630;55.874;37.516;2022-12-10T01:18:47;19.52;;;8.40;;
74259;SDS011;62630;55.874;37.516;2022-12-10T01:21:14;21.48;;;9.85;;
74259;SDS011;62630;55.874;37.516;2022-12-10T01:23:43;16.33;;;8.70;;
74259;SDS011;62630;55.874;37.516;2022-12-10T01:26:12;21.13;;;8.80;;
74259;SDS011;62630;55.874;37.516;2022-12-10T01:28:39;22.33;;;8.65;;
74259;SDS011;62630;55.874;37.516;2022-12-10T01:31:13;21.42;;;8.23;;
74259;SDS011;62630;55.874;37.516;2022-12-10T01:33:43;24.67;;;8.80;;
74259;SDS011;62630;55.874;37.516;2022-12-10T01:36:19;22.33;;;9.68;;
74259;SDS011;62630;55.874;37.516;2022-12-10T01:38:47;19.90;;;8.93;;
74259;SDS011;62630;55.874;37.516;2022-12-10T01:41:14;22.20;;;9.75;;
74259;SDS011;62630;55.874;37.516;2022-12-10T01:43:53;18.55;;;8.88;;
74259;SDS011;62630;55.874;37.516;2022-12-10T01:46:26;20.00;;;7.75;;
74259;SDS011;62630;55.874;37.516;2022-12-10T01:48:54;20.38;;;7.88;;
74259;SDS011;62630;55.874;37.516;2022-12-10T01:51:20;16.83;;;6.93;;
74259;SDS011;62630;55.874;37.516;2022-12-10T01:53:47;15.57;;;7.32;;
74259;SDS011;62630;55.874;37.516;2022-12-10T01:56:14;17.45;;;7.68;;
74259;SDS011;62630;55.874;37.516;2022-12-10T01:58:41;18.52;;;8.20;;
74259;SDS011;62630;55.874;37.516;2022-12-10T02:01:12;16.77;;;6.60;;
74259;SDS011;62630;55.874;37.516;2022-12-10T02:06:23;18.17;;;7.03;;
74259;SDS011;62630;55.874;37.516;2022-12-10T02:09:18;16.00;;;7.80;;
74259;SDS011;62630;55.874;37.516;2022-12-10T02:12:18;18.45;;;8.20;;
74259;SDS011;62630;55.874;37.516;2022-12-10T02:20:15;17.98;;;7.68;;
74259;SDS011;62630;55.874;37.516;2022-12-10T02:22:49;15.63;;;7.13;;
74259;SDS011;62630;55.874;37.516;2022-12-10T02:25:21;19.58;;;7.13;;
74259;SDS011;62630;55.874;37.516;2022-12-10T02:27:55;19.23;;;7.32;;
74259;SDS011;62630;55.874;37.516;2022-12-10T02:30:40;19.05;;;7.93;;
74259;SDS011;62630;55.874;37.516;2022-12-10T02:33:08;15.73;;;6.90;;
74259;SDS011;62630;55.874;37.516;2022-12-10T02:35:35;24.48;;;9.40;;
74259;SDS011;62630;55.874;37.516;2022-12-10T02:38:07;25.05;;;9.95;;
74259;SDS011;62630;55.874;37.516;2022-12-10T02:40:37;25.25;;;9.75;;
74259;SDS011;62630;55.874;37.516;2022-12-10T02:43:07;21.17;;;9.10;;
74259;SDS011;62630;55.874;37.516;2022-12-10T02:45:34;22.55;;;8.85;;
74259;SDS011;62630;55.874;37.516;2022-12-10T02:48:01;28.02;;;11.00;;
74259;SDS011;62630;55.874;37.516;2022-12-10T02:50:29;24.77;;;9.93;;
74259;SDS011;62630;55.874;37.516;2022-12-10T02:52:54;23.55;;;10.25;;
74259;SDS011;62630;55.874;37.516;2022-12-10T02:55:20;24.85;;;10.35;;
74259;SDS011;62630;55.874;37.516;2022-12-10T02:57:53;27.48;;;10.88;;
74259;SDS011;62630;55.874;37.516;2022-12-10T03:00:29;28.35;;;10.25;;
74259;SDS011;62630;55.874;37.516;2022-12-10T03:08:51;33.53;;;11.05;;
74259;SDS011;62630;55.874;37.516;2022-12-10T03:11:22;30.27;;;11.88;;
74259;SDS011;62630;55.874;37.516;2022-12-10T03:13:57;32.80;;;13.07;;
74259;SDS011;62630;55.874;37.516;2022-12-10T03:16:42;34.00;;;12.57;;
74259;SDS011;62630;55.874;37.516;2022-12-10T03:19:21;36.55;;;13.35;;
74259;SDS011;62630;55.874;37.516;2022-12-10T03:21:51;31.38;;;12.20;;
74259;SDS011;62630;55.874;37.516;2022-12-10T03:24:19;35.53;;;12.40;;
74259;SDS011;62630;55.874;37.516;2022-12-10T03:26:47;33.70;;;12.65;;
74259;SDS011;62630;55.874;37.516;2022-12-10T03:29:26;36.03;;;13.63;;
74259;SDS011;62630;55.874;37.516;2022-12-10T03:31:58;35.10;;;13.07;;
74259;SDS011;62630;55.874;37.516;2022-12-10T03:34:25;32.50;;;12.77;;
74259;SDS011;62630;55.874;37.516;2022-12-10T03:36:51;32.22;;;12.50;;
74259;SDS011;62630;55.874;37.516;2022-12-10T03:39:17;30.33;;;11.65;;
74259;SDS011;62630;55.874;37.516;2022-12-10T03:41:43;31.35;;;11.50;;
74259;SDS011;62630;55.874;37.516;2022-12-10T03:44:09;38.92;;;13.75;;
74259;SDS011;62630;55.874;37.516;2022-12-10T03:46:35;37.38;;;13.82;;
74259;SDS011;62630;55.874;37.516;2022-12-10T03:49:01;33.10;;;12.10;;
74259;SDS011;62630;55.874;37.516;2022-12-10T03:51:28;37.28;;;12.73;;
74259;SDS011;62630;55.874;37.516;2022-12-10T03:53:55;33.53;;;12.95;;
74259;SDS011;62630;55.874;37.516;2022-12-10T03:56:21;40.50;;;14.65;;
74259;SDS011;62630;55.874;37.516;2022-12-10T03:58:47;28.88;;;11.75;;
74259;SDS011;62630;55.874;37.516;2022-12-10T04:01:13;45.08;;;14.45;;
74259;SDS011;62630;55.874;37.516;2022-12-10T04:03:39;36.08;;;12.38;;
74259;SDS011;62630;55.874;37.516;2022-12-10T04:06:07;38.72;;;13.77;;
74259;SDS011;62630;55.874;37.516;2022-12-10T04:08:35;41.10;;;13.95;;
74259;SDS011;62630;55.874;37.516;2022-12-10T04:11:02;29.02;;;13.38;;
74259;SDS011;62630;55.874;37.516;2022-12-10T04:13:30;34.97;;;13.43;;
74259;SDS011;62630;55.874;37.516;2022-12-10T04:16:15;35.17;;;13.90;;
74259;SDS011;62630;55.874;37.516;2022-12-10T04:18:57;41.08;;;15.68;;
74259;SDS011;62630;55.874;37.516;2022-12-10T04:21:29;35.67;;;13.73;;
74259;SDS011;62630;55.874;37.516;2022-12-10T04:27:04;37.78;;;15.52;;
74259;SDS011;62630;55.874;37.516;2022-12-10T04:29:33;38.55;;;14.32;;
74259;SDS011;62630;55.874;37.516;2022-12-10T04:31:58;39.00;;;14.40;;
74259;SDS011;62630;55.874;37.516;2022-12-10T04:34:24;35.25;;;14.68;;
74259;SDS011;62630;55.874;37.516;2022-12-10T04:36:50;40.95;;;15.30;;
74259;SDS011;62630;55.874;37.516;2022-12-10T04:39:17;43.38;;;14.88;;
74259;SDS011;62630;55.874;37.516;2022-12-10T04:41:43;37.65;;;15.77;;
74259;SDS011;62630;55.874;37.516;2022-12-10T04:44:14;47.17;;;17.33;;
74259;SDS011;62630;55.874;37.516;2022-12-10T04:46:41;36.83;;;16.30;;
74259;SDS011;62630;55.874;37.516;2022-12-10T04:49:07;47.25;;;17.13;;
74259;SDS011;62630;55.874;37.516;2022-12-10T04:51:33;40.90;;;14.75;;
74259;SDS011;62630;55.874;37.516;2022-12-10T04:54:00;44.55;;;16.17;;
74259;SDS011;62630;55.874;37.516;2022-12-10T04:56:26;39.10;;;15.25;;
74259;SDS011;62630;55.874;37.516;2022-12-10T04:58:52;37.03;;;14.70;;
74259;SDS011;62630;55.874;37.516;2022-12-10T05:01:19;44.70;;;15.13;;
74259;SDS011;62630;55.874;37.516;2022-12-10T05:03:45;46.67;;;15.45;;
74259;SDS011;62630;55.874;37.516;2022-12-10T05:06:11;38.20;;;14.35;;
74259;SDS011;62630;55.874;37.516;2022-12-10T05:11:05;36.05;;;14.13;;
74259;SDS011;62630;55.874;37.516;2022-12-10T05:13:35;36.00;;;13.57;;
74259;SDS011;62630;55.874;37.516;2022-12-10T05:16:02;34.63;;;13.98;;
74259;SDS011;62630;55.874;37.516;2022-12-10T05:18:29;36.55;;;15.00;;
74259;SDS011;62630;55.874;37.516;2022-12-10T05:20:57;36.08;;;14.30;;
74259;SDS011;62630;55.874;37.516;2022-12-10T05:23:24;38.00;;;14.18;;
74259;SDS011;62630;55.874;37.516;2022-12-10T05:26:03;40.65;;;14.88;;
74259;SDS011;62630;55.874;37.516;2022-12-10T05:28:32;27.20;;;13.35;;
74259;SDS011;62630;55.874;37.516;2022-12-10T05:30:59;37.45;;;13.98;;
74259;SDS011;62630;55.874;37.516;2022-12-10T05:33:25;34.50;;;14.25;;
74259;SDS011;62630;55.874;37.516;2022-12-10T05:35:52;29.35;;;13.65;;
74259;SDS011;62630;55.874;37.516;2022-12-10T05:38:19;35.90;;;13.27;;
74259;SDS011;62630;55.874;37.516;2022-12-10T05:40:45;39.67;;;12.93;;
74259;SDS011;62630;55.874;37.516;2022-12-10T05:43:10;35.50;;;14.10;;
74259;SDS011;62630;55.874;37.516;2022-12-10T05:45:37;34.13;;;14.50;;
74259;SDS011;62630;55.874;37.516;2022-12-10T05:48:03;39.78;;;15.38;;
74259;SDS011;62630;55.874;37.516;2022-12-10T05:50:30;35.35;;;13.48;;
74259;SDS011;62630;55.874;37.516;2022-12-10T05:52:57;33.20;;;13.63;;
74259;SDS011;62630;55.874;37.516;2022-12-10T05:55:22;33.13;;;14.02;;
74259;SDS011;62630;55.874;37.516;2022-12-10T05:57:52;37.80;;;14.02;;
74259;SDS011;62630;55.874;37.516;2022-12-10T06:00:19;34.65;;;14.45;;
74259;SDS011;62630;55.874;37.516;2022-12-10T06:02:46;30.60;;;13.70;;
74259;SDS011;62630;55.874;37.516;2022-12-10T06:05:11;33.17;;;14.15;;
74259;SDS011;62630;55.874;37.516;2022-12-10T06:07:37;36.15;;;13.65;;
74259;SDS011;62630;55.874;37.516;2022-12-10T06:10:03;29.55;;;12.25;;
74259;SDS011;62630;55.874;37.516;2022-12-10T06:12:28;35.67;;;15.25;;
74259;SDS011;62630;55.874;37.516;2022-12-10T06:14:54;33.33;;;13.98;;
74259;SDS011;62630;55.874;37.516;2022-12-10T06:17:19;32.92;;;13.32;;
74259;SDS011;62630;55.874;37.516;2022-12-10T06:19:45;36.08;;;14.88;;
74259;SDS011;62630;55.874;37.516;2022-12-10T06:22:10;35.67;;;14.60;;
74259;SDS011;62630;55.874;37.516;2022-12-10T06:24:36;34.67;;;14.90;;
74259;SDS011;62630;55.874;37.516;2022-12-10T06:27:02;34.92;;;14.30;;
74259;SDS011;62630;55.874;37.516;2022-12-10T06:29:29;39.50;;;15.52;;
74259;SDS011;62630;55.874;37.516;2022-12-10T06:31:54;40.50;;;15.88;;
74259;SDS011;62630;55.874;37.516;2022-12-10T06:34:20;30.52;;;14.07;;
74259;SDS011;62630;55.874;37.516;2022-12-10T06:36:45;32.92;;;14.13;;
74259;SDS011;62630;55.874;37.516;2022-12-10T06:39:11;35.85;;;15.80;;
74259;SDS011;62630;55.874;37.516;2022-12-10T06:41:36;32.60;;;14.73;;
74259;SDS011;62630;55.874;37.516;2022-12-10T06:44:02;36.75;;;13.48;;
74259;SDS011;62630;55.874;37.516;2022-12-10T06:46:33;33.47;;;13.43;;
74259;SDS011;62630;55.874;37.516;2022-12-10T06:48:58;39.33;;;16.00;;
74259;SDS011;62630;55.874;37.516;2022-12-10T06:51:24;30.42;;;14.75;;
74259;SDS011;62630;55.874;37.516;2022-12-10T06:53:50;36.78;;;14.32;;
74259;SDS011;62630;55.874;37.516;2022-12-10T06:56:16;32.40;;;14.52;;
74259;SDS011;62630;55.874;37.516;2022-12-10T06:58:43;30.77;;;14.00;;
74259;SDS011;62630;55.874;37.516;2022-12-10T07:01:19;35.65;;;14.55;;
74259;SDS011;62630;55.874;37.516;2022-12-10T07:03:51;42.10;;;14.68;;
74259;SDS011;62630;55.874;37.516;2022-12-10T07:06:18;41.03;;;15.82;;
74259;SDS011;62630;55.874;37.516;2022-12-10T07:08:45;28.20;;;13.68;;
74259;SDS011;62630;55.874;37.516;2022-12-10T07:11:12;29.33;;;13.20;;
74259;SDS011;62630;55.874;37.516;2022-12-10T07:13:40;38.15;;;16.27;;
74259;SDS011;62630;55.874;37.516;2022-12-10T07:18:40;34.08;;;14.23;;
74259;SDS011;62630;55.874;37.516;2022-12-10T07:21:22;30.58;;;13.77;;
74259;SDS011;62630;55.874;37.516;2022-12-10T07:23:53;40.30;;;14.95;;
74259;SDS011;62630;55.874;37.516;2022-12-10T07:26:23;39.53;;;15.27;;
74259;SDS011;62630;55.874;37.516;2022-12-10T07:28:55;36.85;;;14.30;;
74259;SDS011;62630;55.874;37.516;2022-12-10T07:31:21;35.28;;;15.68;;
74259;SDS011;62630;55.874;37.516;2022-12-10T07:33:49;34.13;;;15.80;;
74259;SDS011;62630;55.874;37.516;2022-12-10T07:36:16;43.22;;;16.63;;
74259;SDS011;62630;55.874;37.516;2022-12-10T07:38:42;35.10;;;15.73;;
74259;SDS011;62630;55.874;37.516;2022-12-10T07:41:09;41.10;;;15.48;;
74259;SDS011;62630;55.874;37.516;2022-12-10T07:43:36;34.22;;;16.92;;
74259;SDS011;62630;55.874;37.516;2022-12-10T07:46:10;39.72;;;16.80;;
74259;SDS011;62630;55.874;37.516;2022-12-10T07:48:41;40.53;;;16.50;;
74259;SDS011;62630;55.874;37.516;2022-12-10T07:51:08;38.00;;;16.52;;
74259;SDS011;62630;55.874;37.516;2022-12-10T07:53:36;39.45;;;17.83;;
74259;SDS011;62630;55.874;37.516;2022-12-10T07:56:02;37.88;;;16.63;;
74259;SDS011;62630;55.874;37.516;2022-12-10T07:58:29;33.65;;;16.55;;
74259;SDS011;62630;55.874;37.516;2022-12-10T08:00:54;41.58;;;17.77;;
74259;SDS011;62630;55.874;37.516;2022-12-10T08:03:20;41.25;;;15.57;;
74259;SDS011;62630;55.874;37.516;2022-12-10T08:05:46;39.08;;;16.98;;
74259;SDS011;62630;55.874;37.516;2022-12-10T08:08:11;41.80;;;17.00;;
74259;SDS011;62630;55.874;37.516;2022-12-10T08:10:37;46.17;;;18.55;;
74259;SDS011;62630;55.874;37.516;2022-12-10T08:13:04;41.35;;;18.33;;
74259;SDS011;62630;55.874;37.516;2022-12-10T08:15:31;46.83;;;18.35;;
74259;SDS011;62630;55.874;37.516;2022-12-10T08:17:57;47.50;;;17.77;;
74259;SDS011;62630;55.874;37.516;2022-12-10T08:20:24;46.60;;;17.77;;
74259;SDS011;62630;55.874;37.516;2022-12-10T08:22:50;49.08;;;18.80;;
74259;SDS011;62630;55.874;37.516;2022-12-10T08:25:16;50.63;;;19.33;;
74259;SDS011;62630;55.874;37.516;2022-12-10T08:27:42;50.50;;;20.65;;
74259;SDS011;62630;55.874;37.516;2022-12-10T08:30:08;43.08;;;18.90;;
74259;SDS011;62630;55.874;37.516;2022-12-10T08:32:34;50.03;;;21.55;;
74259;SDS011;62630;55.874;37.516;2022-12-10T08:34:59;49.83;;;20.25;;
74259;SDS011;62630;55.874;37.516;2022-12-10T08:37:28;48.78;;;19.52;;
74259;SDS011;62630;55.874;37.516;2022-12-10T08:39:54;54.85;;;20.08;;
74259;SDS011;62630;55.874;37.516;2022-12-10T08:42:20;51.83;;;19.88;;
74259;SDS011;62630;55.874;37.516;2022-12-10T08:44:46;55.50;;;19.83;;
74259;SDS011;62630;55.874;37.516;2022-12-10T08:47:11;49.67;;;19.20;;
74259;SDS011;62630;55.874;37.516;2022-12-10T08:49:37;51.75;;;18.85;;
74259;SDS011;62630;55.874;37.516;2022-12-10T08:52:02;47.30;;;18.45;;
74259;SDS011;62630;55.874;37.516;2022-12-10T08:54:28;49.38;;;19.23;;
74259;SDS011;62630;55.874;37.516;2022-12-10T08:56:54;50.92;;;18.77;;
74259;SDS011;62630;55.874;37.516;2022-12-10T08:59:19;51.67;;;20.30;;
74259;SDS011;62630;55.874;37.516;2022-12-10T09:01:45;52.13;;;19.20;;
74259;SDS011;62630;55.874;37.516;2022-12-10T09:04:10;52.90;;;19.90;;
74259;SDS011;62630;55.874;37.516;2022-12-10T09:06:37;58.45;;;20.48;;
74259;SDS011;62630;55.874;37.516;2022-12-10T09:09:03;57.00;;;19.67;;
74259;SDS011;62630;55.874;37.516;2022-12-10T09:11:30;54.92;;;20.25;;
74259;SDS011;62630;55.874;37.516;2022-12-10T09:13:58;58.17;;;20.50;;
74259;SDS011;62630;55.874;37.516;2022-12-10T09:16:28;57.45;;;22.75;;
74259;SDS011;62630;55.874;37.516;2022-12-10T09:18:54;55.25;;;21.55;;
74259;SDS011;62630;55.874;37.516;2022-12-10T09:21:20;56.58;;;19.35;;
74259;SDS011;62630;55.874;37.516;2022-12-10T09:23:45;61.80;;;21.63;;
74259;SDS011;62630;55.874;37.516;2022-12-10T09:26:13;59.65;;;20.80;;
74259;SDS011;62630;55.874;37.516;2022-12-10T09:28:41;57.95;;;20.30;;
74259;SDS011;62630;55.874;37.516;2022-12-10T09:31:07;64.13;;;22.45;;
74259;SDS011;62630;55.874;37.516;2022-12-10T09:33:33;60.47;;;20.75;;
74259;SDS011;62630;55.874;37.516;2022-12-10T09:36:04;59.70;;;20.58;;
74259;SDS011;62630;55.874;37.516;2022-12-10T09:38:35;63.88;;;19.90;;
74259;SDS011;62630;55.874;37.516;2022-12-10T09:44:00;64.10;;;20.25;;
74259;SDS011;62630;55.874;37.516;2022-12-10T09:46:39;57.35;;;19.98;;
74259;SDS011;62630;55.874;37.516;2022-12-10T09:52:13;58.45;;;20.20;;
74259;SDS011;62630;55.874;37.516;2022-12-10T09:55:00;52.63;;;19.13;;
74259;SDS011;62630;55.874;37.516;2022-12-10T09:57:35;54.45;;;19.75;;
74259;SDS011;62630;55.874;37.516;2022-12-10T10:00:09;54.53;;;20.35;;
74259;SDS011;62630;55.874;37.516;2022-12-10T10:02:40;55.10;;;18.80;;
74259;SDS011;62630;55.874;37.516;2022-12-10T10:07:33;52.60;;;20.33;;
74259;SDS011;62630;55.874;37.516;2022-12-10T10:10:03;54.38;;;19.70;;
74259;SDS011;62630;55.874;37.516;2022-12-10T10:12:31;60.90;;;21.90;;
74259;SDS011;62630;55.874;37.516;2022-12-10T10:14:59;47.53;;;18.17;;
74259;SDS011;62630;55.874;37.516;2022-12-10T10:17:37;50.60;;;19.42;;
74259;SDS011;62630;55.874;37.516;2022-12-10T10:20:06;44.92;;;18.45;;
74259;SDS011;62630;55.874;37.516;2022-12-10T10:22:31;49.58;;;19.33;;
74259;SDS011;62630;55.874;37.516;2022-12-10T10:24:57;50.67;;;18.30;;
74259;SDS011;62630;55.874;37.516;2022-12-10T10:27:28;50.88;;;18.63;;
74259;SDS011;62630;55.874;37.516;2022-12-10T10:29:57;53.47;;;18.73;;
74259;SDS011;62630;55.874;37.516;2022-12-10T10:33:11;52.03;;;19.05;;
74259;SDS011;62630;55.874;37.516;2022-12-10T10:35:22;56.33;;;19.10;;
74259;SDS011;62630;55.874;37.516;2022-12-10T10:38:05;50.83;;;18.88;;
74259;SDS011;62630;55.874;37.516;2022-12-10T10:40:39;56.05;;;19.98;;
74259;SDS011;62630;55.874;37.516;2022-12-10T10:43:08;55.28;;;19.90;;
74259;SDS011;62630;55.874;37.516;2022-12-10T10:45:42;51.33;;;19.75;;
74259;SDS011;62630;55.874;37.516;2022-12-10T10:48:17;49.30;;;18.52;;
74259;SDS011;62630;55.874;37.516;2022-12-10T10:50:49;48.13;;;19.17;;
74259;SDS011;62630;55.874;37.516;2022-12-10T10:55:48;51.58;;;18.67;;
74259;SDS011;62630;55.874;37.516;2022-12-10T10:58:17;49.58;;;17.23;;
74259;SDS011;62630;55.874;37.516;2022-12-10T11:00:54;49.60;;;18.30;;
74259;SDS011;62630;55.874;37.516;2022-12-10T11:03:20;42.10;;;16.75;;
74259;SDS011;62630;55.874;37.516;2022-12-10T11:05:46;44.53;;;18.00;;
74259;SDS011;62630;55.874;37.516;2022-12-10T11:08:15;42.13;;;16.90;;
74259;SDS011;62630;55.874;37.516;2022-12-10T11:10:49;45.92;;;16.85;;
74259;SDS011;62630;55.874;37.516;2022-12-10T11:13:24;48.45;;;17.17;;
74259;SDS011;62630;55.874;37.516;2022-12-10T11:15:56;41.85;;;16.75;;
74259;SDS011;62630;55.874;37.516;2022-12-10T11:18:31;38.63;;;16.20;;
74259;SDS011;62630;55.874;37.516;2022-12-10T11:23:37;38.72;;;16.60;;
74259;SDS011;62630;55.874;37.516;2022-12-10T11:29:19;34.78;;;16.10;;
74259;SDS011;62630;55.874;37.516;2022-12-10T11:37:55;35.00;;;15.70;;
74259;SDS011;62630;55.874;37.516;2022-12-10T11:40:33;36.67;;;15.40;;
74259;SDS011;62630;55.874;37.516;2022-12-10T11:43:27;34.38;;;14.77;;
74259;SDS011;62630;55.874;37.516;2022-12-10T11:46:10;36.17;;;16.27;;
74259;SDS011;62630;55.874;37.516;2022-12-10T11:59:49;38.78;;;15.40;;
74259;SDS011;62630;55.874;37.516;2022-12-10T12:13:28;35.75;;;14.40;;
74259;SDS011;62630;55.874;37.516;2022-12-10T12:16:22;34.53;;;15.13;;
74259;SDS011;62630;55.874;37.516;2022-12-10T12:19:37;32.55;;;13.65;;
74259;SDS011;62630;55.874;37.516;2022-12-10T12:21:50;35.47;;;15.10;;
74259;SDS011;62630;55.874;37.516;2022-12-10T12:24:19;35.25;;;15.85;;
74259;SDS011;62630;55.874;37.516;2022-12-10T12:26:54;32.35;;;14.52;;
74259;SDS011;62630;55.874;37.516;2022-12-10T12:29:33;37.22;;;14.40;;
74259;SDS011;62630;55.874;37.516;2022-12-10T12:37:50;37.20;;;15.05;;
74259;SDS011;62630;55.874;37.516;2022-12-10T12:40:25;31.55;;;13.35;;
74259;SDS011;62630;55.874;37.516;2022-12-10T12:43:04;33.03;;;12.85;;
74259;SDS011;62630;55.874;37.516;2022-12-10T12:45:43;33.92;;;13.55;;
74259;SDS011;62630;55.874;37.516;2022-12-10T12:48:30;32.10;;;12.90;;
74259;SDS011;62630;55.874;37.516;2022-12-10T12:53:42;31.95;;;13.23;;
74259;SDS011;62630;55.874;37.516;2022-12-10T12:56:12;32.00;;;12.52;;
74259;SDS011;62630;55.874;37.516;2022-12-10T13:04:53;35.90;;;13.95;;
74259;SDS011;62630;55.874;37.516;2022-12-10T13:09:45;33.70;;;12.75;;
74259;SDS011;62630;55.874;37.516;2022-12-10T13:19:40;32.97;;;12.82;;
74259;SDS011;62630;55.874;37.516;2022-12-10T13:22:07;26.38;;;12.23;;
74259;SDS011;62630;55.874;37.516;2022-12-10T13:29:45;28.38;;;12.07;;
74259;SDS011;62630;55.874;37.516;2022-12-10T13:34:58;28.83;;;12.30;;
74259;SDS011;62630;55.874;37.516;2022-12-10T13:40:18;28.38;;;11.35;;
74259;SDS011;62630;55.874;37.516;2022-12-10T13:43:36;28.02;;;11.25;;
74259;SDS011;62630;55.874;37.516;2022-12-10T13:49:05;31.70;;;12.88;;
74259;SDS011;62630;55.874;37.516;2022-12-10T14:00:08;24.23;;;11.38;;
74259;SDS011;62630;55.874;37.516;2022-12-10T14:02:41;23.02;;;11.05;;
74259;SDS011;62630;55.874;37.516;2022-12-10T14:08:23;28.52;;;12.20;;
74259;SDS011;62630;55.874;37.516;2022-12-10T14:10:53;26.98;;;13.38;;
74259;SDS011;62630;55.874;37.516;2022-12-10T14:15:53;27.20;;;11.82;;
74259;SDS011;62630;55.874;37.516;2022-12-10T14:18:20;26.88;;;11.75;;
74259;SDS011;62630;55.874;37.516;2022-12-10T14:20:49;25.98;;;11.85;;
74259;SDS011;62630;55.874;37.516;2022-12-10T14:23:31;28.45;;;10.75;;
74259;SDS011;62630;55.874;37.516;2022-12-10T14:25:58;25.92;;;12.18;;
74259;SDS011;62630;55.874;37.516;2022-12-10T14:28:29;25.00;;;11.38;;
74259;SDS011;62630;55.874;37.516;2022-12-10T14:30:58;22.25;;;9.75;;
74259;SDS011;62630;55.874;37.516;2022-12-10T14:33:24;25.85;;;10.93;;
74259;SDS011;62630;55.874;37.516;2022-12-10T14:35:50;28.58;;;12.43;;
74259;SDS011;62630;55.874;37.516;2022-12-10T14:38:19;28.05;;;11.73;;
74259;SDS011;62630;55.874;37.516;2022-12-10T14:40:48;27.52;;;11.63;;
74259;SDS011;62630;55.874;37.516;2022-12-10T14:43:18;22.98;;;10.65;;
74259;SDS011;62630;55.874;37.516;2022-12-10T14:48:18;23.42;;;10.50;;
74259;SDS011;62630;55.874;37.516;2022-12-10T14:50:46;21.65;;;9.50;;
74259;SDS011;62630;55.874;37.516;2022-12-10T14:53:19;23.67;;;10.50;;
74259;SDS011;62630;55.874;37.516;2022-12-10T14:55:50;28.05;;;11.48;;
74259;SDS011;62630;55.874;37.516;2022-12-10T14:58:27;23.13;;;10.80;;
74259;SDS011;62630;55.874;37.516;2022-12-10T15:00:57;21.40;;;10.27;;
74259;SDS011;62630;55.874;37.516;2022-12-10T15:03:30;20.70;;;10.10;;
74259;SDS011;62630;55.874;37.516;2022-12-10T15:06:02;20.95;;;10.40;;
74259;SDS011;62630;55.874;37.516;2022-12-10T15:08:32;22.77;;;12.25;;
74259;SDS011;62630;55.874;37.516;2022-12-10T15:10:59;22.67;;;10.40;;
74259;SDS011;62630;55.874;37.516;2022-12-10T15:16:06;23.60;;;11.07;;
74259;SDS011;62630;55.874;37.516;2022-12-10T15:18:40;25.10;;;10.93;;
74259;SDS011;62630;55.874;37.516;2022-12-10T15:23:42;27.75;;;11.35;;
74259;SDS011;62630;55.874;37.516;2022-12-10T15:28:50;25.15;;;11.95;;
74259;SDS011;62630;55.874;37.516;2022-12-10T15:31:35;24.63;;;12.13;;
74259;SDS011;62630;55.874;37.516;2022-12-10T15:34:01;25.80;;;13.02;;
74259;SDS011;62630;55.874;37.516;2022-12-10T15:36:39;30.35;;;12.98;;
74259;SDS011;62630;55.874;37.516;2022-12-10T15:41:49;27.23;;;13.00;;
74259;SDS011;62630;55.874;37.516;2022-12-10T15:44:24;27.75;;;12.80;;
74259;SDS011;62630;55.874;37.516;2022-12-10T15:46:52;28.45;;;12.43;;
74259;SDS011;62630;55.874;37.516;2022-12-10T15:49:34;31.83;;;13.07;;
74259;SDS011;62630;55.874;37.516;2022-12-10T15:52:00;22.27;;;11.40;;
74259;SDS011;62630;55.874;37.516;2022-12-10T15:54:28;28.17;;;12.32;;
74259;SDS011;62630;55.874;37.516;2022-12-10T15:57:12;24.00;;;10.98;;
74259;SDS011;62630;55.874;37.516;2022-12-10T15:59:40;23.50;;;10.95;;
74259;SDS011;62630;55.874;37.516;2022-12-10T16:05:12;18.40;;;10.35;;
74259;SDS011;62630;55.874;37.516;2022-12-10T16:07:40;22.83;;;10.38;;
74259;SDS011;62630;55.874;37.516;2022-12-10T16:10:06;22.75;;;10.05;;
74259;SDS011;62630;55.874;37.516;2022-12-10T16:12:33;17.55;;;9.65;;
74259;SDS011;62630;55.874;37.516;2022-12-10T16:15:01;21.15;;;11.15;;
74259;SDS011;62630;55.874;37.516;2022-12-10T16:17:28;20.02;;;10.15;;
74259;SDS011;62630;55.874;37.516;2022-12-10T16:19:58;17.52;;;9.77;;
74259;SDS011;62630;55.874;37.516;2022-12-10T16:22:27;16.70;;;9.60;;
74259;SDS011;62630;55.874;37.516;2022-12-10T16:24:53;21.25;;;9.80;;
74259;SDS011;62630;55.874;37.516;2022-12-10T16:27:18;22.30;;;9.73;;
74259;SDS011;62630;55.874;37.516;2022-12-10T16:29:44;19.95;;;9.15;;
74259;SDS011;62630;55.874;37.516;2022-12-10T16:32:10;19.00;;;10.77;;
74259;SDS011;62630;55.874;37.516;2022-12-10T16:34:36;17.73;;;9.60;;
74259;SDS011;62630;55.874;37.516;2022-12-10T16:37:03;21.95;;;10.57;;
74259;SDS011;62630;55.874;37.516;2022-12-10T16:39:30;15.75;;;9.40;;
74259;SDS011;62630;55.874;37.516;2022-12-10T16:41:56;18.40;;;9.05;;
74259;SDS011;62630;55.874;37.516;2022-12-10T16:44:21;18.27;;;9.20;;